createdAt,value
2022-12-25T00:02:18.045Z,4.60
2022-12-25T00:04:48.184Z,4.50
2022-12-25T00:07:17.501Z,4.50
2022-12-25T00:09:45.434Z,4.60
2022-12-25T00:12:13.399Z,4.70
2022-12-25T00:14:41.384Z,4.60
2022-12-25T00:17:09.289Z,4.70
2022-12-25T00:19:37.295Z,4.70
2022-12-25T00:22:05.223Z,4.70
2022-12-25T00:24:34.510Z,4.70
2022-12-25T00:27:02.499Z,4.70
2022-12-25T00:29:30.482Z,4.70
2022-12-25T00:31:58.518Z,4.60
2022-12-25T00:34:26.532Z,4.70
2022-12-25T00:36:54.469Z,4.70
2022-12-25T00:39:22.395Z,4.60
2022-12-25T00:42:09.441Z,4.60
2022-12-25T00:44:37.920Z,4.60
2022-12-25T00:47:06.079Z,4.50
2022-12-25T00:49:35.107Z,4.40
2022-12-25T00:52:03.163Z,4.40
2022-12-25T00:54:31.120Z,4.40
2022-12-25T00:57:00.444Z,4.30
2022-12-25T00:59:31.610Z,4.20
2022-12-25T01:02:20.829Z,4.20
2022-12-25T01:04:49.205Z,4.40
2022-12-25T01:07:17.865Z,4.50
2022-12-25T01:10:03.973Z,4.50
2022-12-25T01:12:34.828Z,4.40
2022-12-25T01:15:06.435Z,4.40
2022-12-25T01:17:34.577Z,4.40
2022-12-25T01:20:02.914Z,4.30
2022-12-25T01:22:30.958Z,4.20
2022-12-25T01:24:58.989Z,4.20
2022-12-25T01:27:29.603Z,4.10
2022-12-25T01:29:59.003Z,4.00
2022-12-25T01:32:27.002Z,4.00
2022-12-25T01:34:56.556Z,3.90
2022-12-25T01:37:27.532Z,4.00
2022-12-25T01:39:55.461Z,4.00
2022-12-25T01:42:24.715Z,3.80
2022-12-25T01:45:44.142Z,3.60
2022-12-25T01:48:18.037Z,3.70
2022-12-25T01:50:49.683Z,3.90
2022-12-25T01:53:17.896Z,3.90
2022-12-25T01:55:48.408Z,4.00
2022-12-25T01:58:17.307Z,4.00
2022-12-25T02:00:45.436Z,4.00
2022-12-25T02:03:15.243Z,4.00
2022-12-25T02:05:46.762Z,3.90
2022-12-25T02:08:17.854Z,3.90
2022-12-25T02:10:46.384Z,3.80
2022-12-25T02:13:17.599Z,3.80
2022-12-25T02:15:56.551Z,3.90
2022-12-25T02:18:38.006Z,3.90
2022-12-25T02:21:25.200Z,3.90
2022-12-25T02:24:24.971Z,3.90
2022-12-25T02:27:08.523Z,3.60
2022-12-25T02:29:47.360Z,3.40
2022-12-25T02:32:22.313Z,3.00
2022-12-25T02:34:53.097Z,3.20
2022-12-25T02:37:29.739Z,3.30
2022-12-25T02:40:02.453Z,3.30
2022-12-25T02:42:55.517Z,3.40
2022-12-25T02:45:49.178Z,3.40
2022-12-25T02:48:37.705Z,3.40
2022-12-25T02:51:28.316Z,3.50
2022-12-25T02:54:16.451Z,3.60
2022-12-25T02:57:04.234Z,3.80
2022-12-25T02:59:56.427Z,3.70
2022-12-25T03:02:46.128Z,3.70
2022-12-25T03:05:36.115Z,3.80
2022-12-25T03:08:08.029Z,3.90
2022-12-25T03:10:55.604Z,3.80
2022-12-25T03:13:28.491Z,3.80
2022-12-25T03:16:14.305Z,3.80
2022-12-25T03:18:43.961Z,3.70
2022-12-25T03:21:29.451Z,3.60
2022-12-25T03:24:18.531Z,3.50
2022-12-25T03:26:55.998Z,3.60
2022-12-25T03:29:42.419Z,3.50
2022-12-25T03:32:34.944Z,3.40
2022-12-25T03:35:24.058Z,3.60
2022-12-25T03:38:34.308Z,3.60
2022-12-25T03:41:29.000Z,3.50
2022-12-25T03:44:23.680Z,3.10
2022-12-25T03:47:15.469Z,3.10
2022-12-25T03:50:08.594Z,2.80
2022-12-25T03:52:56.972Z,2.90
2022-12-25T03:55:45.179Z,3.10
2022-12-25T03:58:37.040Z,3.10
2022-12-25T04:01:22.576Z,3.10
2022-12-25T04:04:07.945Z,3.30
2022-12-25T04:06:53.303Z,3.30
2022-12-25T04:09:40.506Z,3.30
2022-12-25T04:12:25.780Z,3.40
2022-12-25T04:15:11.412Z,3.50
2022-12-25T04:17:56.708Z,3.60
2022-12-25T04:20:42.494Z,3.60
2022-12-25T04:23:36.181Z,3.50
2022-12-25T04:26:23.187Z,3.30
2022-12-25T04:29:08.807Z,3.30
2022-12-25T04:31:54.577Z,3.10
2022-12-25T04:34:40.348Z,3.00
2022-12-25T04:37:08.342Z,3.10
2022-12-25T04:39:36.275Z,3.10
2022-12-25T04:42:05.647Z,3.10
2022-12-25T04:44:33.648Z,3.20
2022-12-25T04:47:05.849Z,3.10
2022-12-25T04:49:37.240Z,3.20
2022-12-25T04:52:05.405Z,3.10
2022-12-25T04:54:33.491Z,3.10
2022-12-25T04:57:01.562Z,3.20
2022-12-25T04:59:30.852Z,3.30
2022-12-25T05:01:58.881Z,3.30
2022-12-25T05:04:26.840Z,3.40
2022-12-25T05:06:54.832Z,3.20
2022-12-25T05:09:22.823Z,3.20
2022-12-25T05:11:51.036Z,3.20
2022-12-25T05:14:19.002Z,3.10
2022-12-25T05:16:48.367Z,2.90
2022-12-25T05:19:16.360Z,2.80
2022-12-25T05:21:44.275Z,2.70
2022-12-25T05:24:12.420Z,2.80
2022-12-25T05:26:40.408Z,2.90
2022-12-25T05:29:08.327Z,3.00
2022-12-25T05:31:36.378Z,3.00
2022-12-25T05:34:07.662Z,3.00
2022-12-25T05:36:35.815Z,3.00
2022-12-25T05:39:03.824Z,3.00
2022-12-25T05:41:34.379Z,3.00
2022-12-25T05:44:02.645Z,2.90
2022-12-25T05:46:31.954Z,2.90
2022-12-25T05:49:00.024Z,2.90
2022-12-25T05:51:30.730Z,2.80
2022-12-25T05:53:58.772Z,2.70
2022-12-25T05:56:26.879Z,2.70
2022-12-25T05:58:54.899Z,2.70
2022-12-25T06:01:26.716Z,2.70
2022-12-25T06:03:54.751Z,2.80
2022-12-25T06:06:22.850Z,2.70
2022-12-25T06:08:56.107Z,2.60
2022-12-25T06:11:24.474Z,2.40
2022-12-25T06:13:53.194Z,2.30
2022-12-25T06:16:21.737Z,2.10
2022-12-25T06:18:53.438Z,2.20
2022-12-25T06:21:21.546Z,2.10
2022-12-25T06:23:49.658Z,2.20
2022-12-25T06:26:21.258Z,2.20
2022-12-25T06:28:49.263Z,2.20
2022-12-25T06:31:19.957Z,2.30
2022-12-25T06:33:51.230Z,2.30
2022-12-25T06:36:21.309Z,2.20
2022-12-25T06:38:49.792Z,2.10
2022-12-25T06:41:23.131Z,1.80
2022-12-25T06:43:52.461Z,1.40
2022-12-25T06:46:21.498Z,1.30
2022-12-25T06:48:50.233Z,1.20
2022-12-25T06:51:18.971Z,1.10
2022-12-25T06:53:47.307Z,1.00
2022-12-25T06:56:17.296Z,0.90
2022-12-25T06:58:47.755Z,0.80
2022-12-25T07:01:19.998Z,0.90
2022-12-25T07:03:50.972Z,0.90
2022-12-25T07:06:18.959Z,0.90
2022-12-25T07:08:47.008Z,0.80
2022-12-25T07:11:15.136Z,0.90
2022-12-25T07:13:43.231Z,0.90
2022-12-25T07:16:16.237Z,0.70
2022-12-25T07:18:45.723Z,0.70
2022-12-25T07:21:15.085Z,0.50
2022-12-25T07:23:43.965Z,0.50
2022-12-25T07:26:14.450Z,0.40
2022-12-25T07:28:46.220Z,0.20
2022-12-25T07:31:17.692Z,0.20
2022-12-25T07:33:46.492Z,0.20
2022-12-25T07:36:16.222Z,0.20
2022-12-25T07:38:44.642Z,0.30
2022-12-25T07:41:13.890Z,0.20
2022-12-25T07:43:41.887Z,0.20
2022-12-25T07:46:11.032Z,0.30
2022-12-25T07:48:40.458Z,0.40
2022-12-25T07:51:12.110Z,0.50
2022-12-25T07:53:40.614Z,0.70
2022-12-25T07:56:11.741Z,0.70
2022-12-25T07:58:40.168Z,0.70
2022-12-25T08:01:11.176Z,0.70
2022-12-25T08:03:40.949Z,0.60
2022-12-25T08:06:10.867Z,0.60
2022-12-25T08:08:40.172Z,0.70
2022-12-25T08:11:09.613Z,0.70
2022-12-25T08:13:38.362Z,0.60
2022-12-25T08:16:08.935Z,0.80
2022-12-25T08:18:37.513Z,1.00
2022-12-25T08:21:09.521Z,1.20
2022-12-25T08:23:39.153Z,1.20
2022-12-25T08:26:08.554Z,1.00
2022-12-25T08:28:37.188Z,0.90
2022-12-25T08:31:14.501Z,1.00
2022-12-25T08:33:43.260Z,1.00
2022-12-25T08:36:13.920Z,1.10
2022-12-25T08:38:42.230Z,1.10
2022-12-25T08:41:12.170Z,1.20
2022-12-25T08:43:42.301Z,1.20
2022-12-25T08:46:10.804Z,1.40
2022-12-25T08:48:39.622Z,1.30
2022-12-25T08:51:14.797Z,1.20
2022-12-25T08:53:46.532Z,1.30
2022-12-25T08:56:15.634Z,1.50
2022-12-25T08:58:44.185Z,1.50
2022-12-25T09:01:12.639Z,1.80
2022-12-25T09:03:41.343Z,1.70
2022-12-25T09:06:19.693Z,1.70
2022-12-25T09:08:49.710Z,1.60
2022-12-25T09:11:19.964Z,1.70
2022-12-25T09:13:48.114Z,2.20
2022-12-25T09:16:18.467Z,2.20
2022-12-25T09:18:46.702Z,2.20
2022-12-25T09:21:17.137Z,2.20
2022-12-25T09:23:45.447Z,2.40
2022-12-25T09:26:15.952Z,2.50
2022-12-25T09:28:50.718Z,2.50
2022-12-25T09:31:23.386Z,2.60
2022-12-25T09:33:51.941Z,2.70
2022-12-25T09:36:23.280Z,2.70
2022-12-25T09:38:51.664Z,2.70
2022-12-25T09:41:28.066Z,2.90
2022-12-25T09:44:02.022Z,2.90
2022-12-25T09:46:38.524Z,2.90
2022-12-25T09:49:14.477Z,3.00
2022-12-25T09:51:46.681Z,3.10
2022-12-25T09:54:22.141Z,3.20
2022-12-25T09:56:50.185Z,3.20
2022-12-25T09:59:25.110Z,3.30
2022-12-25T10:02:12.474Z,3.40
2022-12-25T10:04:59.945Z,3.60
2022-12-25T10:07:38.227Z,3.70
2022-12-25T10:10:22.987Z,3.90
2022-12-25T10:13:01.401Z,4.10
2022-12-25T10:15:39.279Z,4.30
2022-12-25T10:18:46.977Z,4.40
2022-12-25T10:21:18.164Z,4.50
2022-12-25T10:23:51.061Z,4.70
2022-12-25T10:26:22.505Z,4.70
2022-12-25T10:28:57.988Z,4.80
2022-12-25T10:31:30.084Z,4.80
2022-12-25T10:33:59.566Z,4.80
2022-12-25T10:36:31.704Z,4.90
2022-12-25T10:39:01.498Z,4.90
2022-12-25T10:41:49.778Z,4.80
2022-12-25T10:44:20.573Z,4.70
2022-12-25T10:46:50.962Z,4.60
2022-12-25T10:49:22.039Z,4.80
2022-12-25T10:51:50.456Z,4.90
2022-12-25T10:54:26.077Z,5.00
2022-12-25T10:57:00.041Z,5.20
2022-12-25T10:59:30.713Z,5.30
2022-12-25T11:02:10.702Z,5.50
2022-12-25T11:04:39.086Z,5.70
2022-12-25T11:07:09.554Z,5.90
2022-12-25T11:09:39.007Z,5.80
2022-12-25T11:12:08.008Z,5.70
2022-12-25T11:14:36.061Z,5.50
2022-12-25T11:17:09.499Z,5.30
2022-12-25T11:19:37.712Z,5.50
2022-12-25T11:22:19.678Z,5.70
2022-12-25T11:24:49.422Z,5.90
2022-12-25T11:27:24.460Z,5.90
2022-12-25T11:29:56.881Z,6.00
2022-12-25T11:32:31.064Z,5.90
2022-12-25T11:35:00.616Z,6.10
2022-12-25T11:37:35.093Z,6.10
2022-12-25T11:40:05.554Z,6.60
2022-12-25T11:42:38.064Z,6.90
2022-12-25T11:45:13.045Z,7.00
2022-12-25T11:47:45.946Z,7.10
2022-12-25T11:50:23.526Z,7.30
2022-12-25T11:52:53.264Z,7.40
2022-12-25T11:55:30.338Z,7.50
2022-12-25T11:58:02.332Z,7.60
2022-12-25T12:00:31.838Z,7.70
2022-12-25T12:03:04.627Z,7.90
2022-12-25T12:05:39.615Z,8.00
2022-12-25T12:08:07.885Z,8.00
2022-12-25T12:11:15.614Z,8.10
2022-12-25T12:13:59.063Z,8.00
2022-12-25T12:16:27.705Z,8.10
2022-12-25T12:18:55.877Z,8.20
2022-12-25T12:21:25.923Z,8.30
2022-12-25T12:23:57.664Z,8.30
2022-12-25T12:26:29.450Z,8.10
2022-12-25T12:29:01.062Z,7.90
2022-12-25T12:31:39.149Z,7.80
2022-12-25T12:34:08.715Z,7.80
2022-12-25T12:36:37.120Z,8.00
2022-12-25T12:39:06.402Z,8.00
2022-12-25T12:41:47.145Z,8.00
2022-12-25T12:44:17.071Z,8.20
2022-12-25T12:46:53.576Z,8.30
2022-12-25T12:49:24.530Z,8.40
2022-12-25T12:52:03.412Z,8.30
2022-12-25T12:54:31.402Z,8.30
2022-12-25T12:57:02.866Z,8.30
2022-12-25T12:59:40.040Z,8.20
2022-12-25T13:02:31.689Z,8.30
2022-12-25T13:05:04.938Z,8.10
2022-12-25T13:07:45.530Z,8.20
2022-12-25T13:10:24.791Z,8.40
2022-12-25T13:12:57.566Z,8.30
2022-12-25T13:15:29.201Z,8.40
2022-12-25T13:18:01.547Z,8.40
2022-12-25T13:20:40.829Z,8.40
2022-12-25T13:23:16.760Z,8.40
2022-12-25T13:25:55.530Z,8.40
2022-12-25T13:28:32.481Z,8.20
2022-12-25T13:31:06.548Z,8.10
2022-12-25T13:33:34.856Z,8.10
2022-12-25T13:36:04.205Z,8.20
2022-12-25T13:38:32.675Z,7.70
2022-12-25T13:41:18.631Z,8.00
2022-12-25T13:43:49.892Z,8.10
2022-12-25T13:46:25.888Z,7.80
2022-12-25T13:48:59.210Z,7.70
2022-12-25T13:51:27.989Z,7.90
2022-12-25T13:54:05.574Z,7.80
2022-12-25T13:56:35.341Z,7.80
2022-12-25T13:59:05.337Z,8.00
2022-12-25T14:01:33.434Z,7.80
2022-12-25T14:04:01.824Z,8.00
2022-12-25T14:06:34.691Z,7.90
2022-12-25T14:09:05.537Z,7.80
2022-12-25T14:11:33.924Z,7.80
2022-12-25T14:14:08.700Z,7.50
2022-12-25T14:16:37.137Z,7.60
2022-12-25T14:19:20.246Z,7.50
2022-12-25T14:21:54.444Z,7.50
2022-12-25T14:24:25.737Z,7.60
2022-12-25T14:27:02.629Z,7.50
2022-12-25T14:29:37.523Z,7.40
2022-12-25T14:32:08.222Z,7.40
2022-12-25T14:34:36.415Z,7.30
2022-12-25T14:37:05.560Z,7.30
2022-12-25T14:39:39.637Z,7.30
2022-12-25T14:42:18.756Z,7.10
2022-12-25T14:44:58.680Z,7.10
2022-12-25T14:47:27.091Z,7.10
2022-12-25T14:49:55.249Z,7.10
2022-12-25T14:52:27.313Z,6.90
2022-12-25T14:55:16.541Z,6.90
2022-12-25T14:57:50.195Z,6.90
2022-12-25T15:00:32.668Z,6.90
2022-12-25T15:03:02.396Z,6.90
2022-12-25T15:05:33.569Z,6.80
2022-12-25T15:08:23.828Z,6.70
2022-12-25T15:11:01.785Z,6.60
2022-12-25T15:13:31.680Z,6.50
2022-12-25T15:16:06.905Z,6.40
2022-12-25T15:18:39.187Z,6.20
2022-12-25T15:21:08.300Z,6.10
2022-12-25T15:23:36.415Z,6.00
2022-12-25T15:26:04.770Z,5.90
2022-12-25T15:28:32.980Z,5.70
2022-12-25T15:31:02.566Z,5.80
2022-12-25T15:33:31.389Z,5.70
2022-12-25T15:35:59.969Z,5.60
2022-12-25T15:38:36.594Z,5.40
2022-12-25T15:41:06.780Z,5.30
2022-12-25T15:43:42.630Z,5.20
2022-12-25T15:46:15.283Z,5.20
2022-12-25T15:48:43.469Z,5.10
2022-12-25T15:51:11.550Z,5.00
2022-12-25T15:53:39.770Z,4.80
2022-12-25T15:56:08.454Z,4.80
2022-12-25T15:58:37.243Z,4.70
2022-12-25T16:01:05.774Z,4.60
2022-12-25T16:03:35.180Z,4.60
2022-12-25T16:06:03.699Z,4.40
2022-12-25T16:08:35.029Z,4.50
2022-12-25T16:11:05.671Z,4.40
2022-12-25T16:13:34.119Z,4.40
2022-12-25T16:16:03.023Z,4.40
2022-12-25T16:18:31.476Z,4.40
2022-12-25T16:21:00.976Z,4.40
2022-12-25T16:23:31.996Z,4.40
2022-12-25T16:26:00.504Z,4.40
2022-12-25T16:28:28.757Z,4.40
2022-12-25T16:30:57.013Z,4.20
2022-12-25T16:33:30.743Z,4.10
2022-12-25T16:36:00.439Z,4.00
2022-12-25T16:38:28.853Z,3.80
2022-12-25T16:41:02.206Z,3.80
2022-12-25T16:43:33.425Z,3.70
2022-12-25T16:46:01.704Z,3.80
2022-12-25T16:48:30.552Z,3.80
2022-12-25T16:51:00.037Z,3.90
2022-12-25T16:53:28.301Z,4.00
2022-12-25T16:56:06.536Z,4.00
2022-12-25T16:58:35.125Z,4.10
2022-12-25T17:01:13.224Z,4.10
2022-12-25T17:03:41.514Z,4.20
2022-12-25T17:06:15.899Z,4.20
2022-12-25T17:08:44.854Z,4.20
2022-12-25T17:11:13.395Z,4.10
2022-12-25T17:13:47.101Z,4.10
2022-12-25T17:16:16.839Z,4.00
2022-12-25T17:18:46.909Z,3.80
2022-12-25T17:21:19.361Z,3.70
2022-12-25T17:23:50.535Z,3.70
2022-12-25T17:26:19.057Z,3.40
2022-12-25T17:28:49.438Z,3.50
2022-12-25T17:31:18.565Z,3.50
2022-12-25T17:33:46.907Z,3.50
2022-12-25T17:36:18.707Z,3.60
2022-12-25T17:38:47.479Z,3.60
2022-12-25T17:41:19.323Z,3.60
2022-12-25T17:43:47.930Z,3.50
2022-12-25T17:46:18.235Z,3.40
2022-12-25T17:48:50.384Z,3.20
2022-12-25T17:51:25.564Z,3.00
2022-12-25T17:54:18.008Z,3.00
2022-12-25T17:56:54.467Z,3.10
2022-12-25T17:59:29.412Z,3.30
2022-12-25T18:01:57.856Z,3.40
2022-12-25T18:04:25.950Z,3.50
2022-12-25T18:06:55.373Z,3.70
2022-12-25T18:09:23.483Z,3.70
2022-12-25T18:11:56.061Z,3.90
2022-12-25T18:14:24.026Z,4.00
2022-12-25T18:16:52.960Z,4.10
2022-12-25T18:19:21.309Z,4.00
2022-12-25T18:21:49.520Z,4.20
2022-12-25T18:24:18.913Z,4.20
2022-12-25T18:26:47.301Z,4.20
2022-12-25T18:29:15.383Z,4.20
2022-12-25T18:31:46.378Z,4.20
2022-12-25T18:34:14.735Z,4.30
2022-12-25T18:36:44.653Z,4.20
2022-12-25T18:39:17.925Z,4.20
2022-12-25T18:42:15.513Z,4.30
2022-12-25T18:44:43.518Z,4.40
2022-12-25T18:47:14.871Z,4.30
2022-12-25T18:49:43.000Z,4.20
2022-12-25T18:52:48.250Z,4.20
2022-12-25T18:54:59.731Z,4.10
2022-12-25T18:57:29.193Z,4.10
2022-12-25T18:59:57.271Z,4.10
2022-12-25T19:02:25.524Z,4.10
2022-12-25T19:04:55.024Z,4.00
2022-12-25T19:07:23.812Z,3.90
2022-12-25T19:09:52.045Z,4.00
2022-12-25T19:12:20.298Z,3.90
2022-12-25T19:14:50.861Z,4.00
2022-12-25T19:17:19.216Z,4.00
2022-12-25T19:19:47.633Z,3.70
2022-12-25T19:22:15.603Z,3.80
2022-12-25T19:24:49.908Z,3.90
2022-12-25T19:27:35.162Z,3.80
2022-12-25T19:30:05.376Z,4.00
2022-12-25T19:32:35.161Z,4.00
2022-12-25T19:35:07.207Z,4.00
2022-12-25T19:37:37.346Z,4.10
2022-12-25T19:40:12.684Z,4.00
2022-12-25T19:42:46.996Z,4.10
2022-12-25T19:48:10.944Z,4.20
2022-12-25T19:50:42.065Z,4.20
2022-12-25T19:53:10.793Z,4.20
2022-12-25T19:55:39.531Z,4.00
2022-12-25T19:58:10.160Z,4.00
2022-12-25T20:00:40.278Z,4.10
2022-12-25T20:03:24.752Z,4.10
2022-12-25T20:05:53.798Z,4.10
2022-12-25T20:08:24.885Z,4.10
2022-12-25T20:10:56.260Z,4.10
2022-12-25T20:13:27.565Z,4.10
2022-12-25T20:16:02.327Z,4.20
2022-12-25T20:18:33.791Z,4.30
2022-12-25T20:21:02.444Z,4.40
2022-12-25T20:23:30.955Z,4.40
2022-12-25T20:26:04.812Z,4.40
2022-12-25T20:28:37.361Z,4.40
2022-12-25T20:31:13.879Z,4.40
2022-12-25T20:33:46.795Z,4.40
2022-12-25T20:36:15.280Z,4.40
2022-12-25T20:38:46.311Z,4.40
2022-12-25T20:41:27.427Z,4.40
2022-12-25T20:44:01.242Z,4.40
2022-12-25T20:46:30.930Z,4.50
2022-12-25T20:49:01.333Z,4.50
2022-12-25T20:51:29.476Z,4.50
2022-12-25T20:53:57.873Z,4.40
2022-12-25T20:56:27.504Z,4.40
2022-12-25T20:58:55.999Z,4.40
2022-12-25T21:01:24.941Z,4.40
2022-12-25T21:03:57.208Z,4.40
2022-12-25T21:06:27.344Z,4.40
2022-12-25T21:08:55.875Z,4.40
2022-12-25T21:11:24.121Z,4.40
2022-12-25T21:14:06.303Z,4.40
2022-12-25T21:16:35.949Z,4.40
2022-12-25T21:19:05.519Z,4.40
2022-12-25T21:21:35.817Z,4.40
2022-12-25T21:24:04.018Z,4.40
2022-12-25T21:26:32.662Z,4.40
2022-12-25T21:29:03.576Z,4.40
2022-12-25T21:31:52.356Z,4.50
2022-12-25T21:34:23.634Z,4.50
2022-12-25T21:36:51.687Z,4.50
2022-12-25T21:39:23.094Z,4.50
2022-12-25T21:41:51.179Z,4.30
2022-12-25T21:44:22.276Z,4.30
2022-12-25T21:46:50.413Z,4.30
2022-12-25T21:49:38.577Z,4.40
2022-12-25T21:52:06.962Z,4.30
2022-12-25T21:54:35.295Z,4.30
2022-12-25T21:57:03.299Z,4.20
2022-12-25T21:59:31.379Z,4.30
2022-12-25T22:02:00.410Z,4.40
2022-12-25T22:04:28.697Z,4.40
2022-12-25T22:07:14.394Z,4.50
2022-12-25T22:09:45.072Z,4.40
2022-12-25T22:12:34.396Z,4.40
2022-12-25T22:15:06.266Z,4.30
2022-12-25T22:17:53.990Z,4.30
2022-12-25T22:20:24.390Z,4.30
2022-12-25T22:22:52.389Z,4.40
2022-12-25T22:25:21.906Z,4.40
2022-12-25T22:27:50.700Z,4.20
2022-12-25T22:30:20.364Z,4.30
2022-12-25T22:32:52.226Z,4.30
2022-12-25T22:35:20.636Z,4.40
2022-12-25T22:37:49.661Z,4.40
2022-12-25T22:40:19.458Z,4.30
2022-12-25T22:42:49.151Z,4.20
2022-12-25T22:45:17.492Z,4.30
2022-12-25T22:47:45.445Z,4.30
2022-12-25T22:50:16.688Z,4.40
2022-12-25T22:52:45.773Z,4.40
2022-12-25T22:55:18.146Z,4.40
2022-12-25T22:57:46.251Z,4.40
2022-12-25T23:00:16.139Z,4.30
2022-12-25T23:02:44.351Z,4.30
2022-12-25T23:05:12.581Z,4.20
2022-12-25T23:07:41.644Z,4.20
2022-12-25T23:10:10.636Z,4.20
2022-12-25T23:12:55.878Z,4.20
2022-12-25T23:15:25.841Z,4.30
2022-12-25T23:18:11.105Z,4.20
2022-12-25T23:20:56.824Z,4.20
2022-12-25T23:23:42.393Z,4.20
2022-12-25T23:26:10.568Z,4.20
2022-12-25T23:28:57.374Z,4.30
2022-12-25T23:31:29.993Z,4.10
2022-12-25T23:33:58.618Z,4.20
2022-12-25T23:36:26.997Z,4.20
2022-12-25T23:38:55.236Z,4.20
2022-12-25T23:41:23.263Z,4.20
2022-12-25T23:43:51.220Z,4.20
2022-12-25T23:46:19.237Z,4.20
2022-12-25T23:48:49.100Z,4.10
2022-12-25T23:51:17.070Z,4.00
2022-12-25T23:53:44.965Z,4.20
2022-12-25T23:56:13.289Z,4.20
2022-12-25T23:58:41.245Z,4.20
